createdAt,value
2022-10-21T00:04:41.807Z,99220.20
2022-10-21T00:09:43.652Z,99226.63
2022-10-21T00:14:45.445Z,99235.33
2022-10-21T00:19:47.310Z,99245.47
2022-10-21T00:24:49.258Z,99237.52
2022-10-21T00:29:50.979Z,99224.58
2022-10-21T00:34:53.019Z,99211.38
2022-10-21T00:39:55.103Z,99214.02
2022-10-21T00:45:09.177Z,99215.48
2022-10-21T00:50:32.648Z,99213.92
2022-10-21T00:55:39.607Z,99202.63
2022-10-21T01:00:41.481Z,99194.13
2022-10-21T01:05:44.677Z,99187.09
2022-10-21T01:10:47.730Z,99169.46
2022-10-21T01:16:04.779Z,99166.42
2022-10-21T01:21:15.680Z,99164.59
2022-10-21T01:26:38.569Z,99162.38
2022-10-21T01:31:50.757Z,99163.46
2022-10-21T01:37:17.440Z,99162.79
2022-10-21T01:42:35.144Z,99170.42
2022-10-21T01:47:42.381Z,99171.63
2022-10-21T01:53:03.448Z,99159.30
2022-10-21T01:58:29.007Z,99152.34
2022-10-21T02:03:35.085Z,99153.77
2022-10-21T02:08:37.142Z,99150.20
2022-10-21T02:13:51.578Z,99152.00
2022-10-21T02:18:55.539Z,99143.73
2022-10-21T02:24:02.976Z,99127.23
2022-10-21T02:29:05.155Z,99126.20
2022-10-21T02:34:30.174Z,99131.02
2022-10-21T02:39:41.313Z,99123.95
2022-10-21T02:44:43.066Z,99127.45
2022-10-21T02:49:46.138Z,99120.55
2022-10-21T02:54:48.093Z,99106.71
2022-10-21T02:59:50.033Z,99093.91
2022-10-21T03:04:51.939Z,99090.77
2022-10-21T03:09:53.813Z,99082.83
2022-10-21T03:14:55.593Z,99083.90
2022-10-21T03:19:57.465Z,99080.07
2022-10-21T03:24:59.401Z,99078.01
2022-10-21T03:30:01.446Z,99074.52
2022-10-21T03:35:17.505Z,99069.79
2022-10-21T03:40:20.085Z,99066.63
2022-10-21T03:45:21.820Z,99067.58
2022-10-21T03:50:26.371Z,99075.44
2022-10-21T03:55:28.996Z,99075.95
2022-10-21T04:00:31.803Z,99070.14
2022-10-21T04:05:34.349Z,99073.18
2022-10-21T04:10:36.162Z,99073.70
2022-10-21T04:15:38.146Z,99082.52
2022-10-21T04:20:39.953Z,99075.56
2022-10-21T04:25:44.674Z,99060.38
2022-10-21T04:30:57.809Z,99051.95
2022-10-21T04:35:59.750Z,99060.56
2022-10-21T04:41:03.632Z,99060.45
2022-10-21T04:46:12.025Z,99059.25
2022-10-21T04:51:14.205Z,99049.38
2022-10-21T04:56:16.202Z,99051.46
2022-10-21T05:01:17.960Z,99046.33
2022-10-21T05:06:40.422Z,99051.33
2022-10-21T05:11:49.173Z,99052.41
2022-10-21T05:16:50.955Z,99050.66
2022-10-21T05:21:59.427Z,99023.81
2022-10-21T05:27:07.838Z,99057.58
2022-10-21T05:32:09.634Z,99033.45
2022-10-21T05:37:11.365Z,99040.72
2022-10-21T05:42:13.373Z,99038.80
2022-10-21T05:47:15.542Z,99038.42
2022-10-21T05:52:17.267Z,99032.91
2022-10-21T05:57:19.049Z,99033.67
2022-10-21T06:02:20.967Z,99035.74
2022-10-21T06:07:22.992Z,99037.42
2022-10-21T06:12:25.378Z,99029.58
2022-10-21T06:17:37.965Z,99032.55
2022-10-21T06:22:40.000Z,99036.10
2022-10-21T06:27:41.961Z,99038.15
2022-10-21T06:32:43.868Z,99035.69
2022-10-21T06:37:45.813Z,99031.40
2022-10-21T06:43:08.453Z,99022.79
2022-10-21T06:48:23.885Z,99014.43
2022-10-21T06:53:26.218Z,98996.43
2022-10-21T06:58:28.103Z,99001.78
2022-10-21T07:03:30.101Z,98992.69
2022-10-21T07:08:46.537Z,98986.89
2022-10-21T07:13:55.809Z,98985.56
2022-10-21T07:18:58.361Z,98988.41
2022-10-21T07:24:00.880Z,98984.31
2022-10-21T07:29:03.137Z,98977.80
2022-10-21T07:34:08.136Z,98968.35
2022-10-21T07:39:14.189Z,98960.20
2022-10-21T07:44:17.306Z,98952.96
2022-10-21T07:49:20.743Z,98943.88
2022-10-21T07:54:23.145Z,98940.44
2022-10-21T07:59:25.127Z,98927.83
2022-10-21T08:04:29.913Z,98925.20
2022-10-21T08:09:31.939Z,98920.52
2022-10-21T08:14:34.557Z,98910.67
2022-10-21T08:19:36.633Z,98899.67
2022-10-21T08:24:41.532Z,98893.77
2022-10-21T08:29:44.480Z,98889.29
2022-10-21T08:34:46.258Z,98878.69
2022-10-21T08:39:48.236Z,98872.44
2022-10-21T08:45:03.218Z,98867.24
2022-10-21T08:50:13.684Z,98856.73
2022-10-21T08:55:22.301Z,98849.98
2022-10-21T09:00:31.143Z,98849.42
2022-10-21T09:05:45.498Z,98842.84
2022-10-21T09:11:19.988Z,98834.86
2022-10-21T09:16:33.695Z,98832.59
2022-10-21T09:21:40.518Z,98832.38
2022-10-21T09:26:45.812Z,98826.71
2022-10-21T09:31:54.344Z,98813.14
2022-10-21T09:37:00.715Z,98800.52
2022-10-21T09:42:29.226Z,98800.55
2022-10-21T09:47:34.954Z,98796.64
2022-10-21T09:52:38.458Z,98795.36
2022-10-21T09:57:47.042Z,98800.48
2022-10-21T10:02:49.808Z,98800.26
2022-10-21T10:07:51.906Z,98799.27
2022-10-21T10:13:01.681Z,98805.61
2022-10-21T10:18:05.157Z,98801.86
2022-10-21T10:23:09.929Z,98800.58
2022-10-21T10:28:11.718Z,98792.74
2022-10-21T10:33:22.050Z,98784.08
2022-10-21T10:38:29.388Z,98789.38
2022-10-21T10:43:32.068Z,98782.25
2022-10-21T10:48:48.637Z,98772.46
2022-10-21T10:54:01.639Z,98767.48
2022-10-21T10:59:28.531Z,98757.70
2022-10-21T11:05:04.238Z,98746.00
2022-10-21T11:10:37.205Z,98734.30
2022-10-21T11:15:57.228Z,98721.11
2022-10-21T11:21:37.418Z,98712.20
2022-10-21T11:26:52.565Z,98697.13
2022-10-21T11:32:32.517Z,98698.66
2022-10-21T11:38:06.611Z,98687.55
2022-10-21T11:43:26.857Z,98680.52
2022-10-21T11:48:31.804Z,98667.41
2022-10-21T11:54:03.410Z,98648.70
2022-10-21T11:59:35.358Z,98646.64
2022-10-21T12:04:51.372Z,98651.52
2022-10-21T12:10:10.163Z,98640.53
2022-10-21T12:15:27.137Z,98613.96
2022-10-21T12:20:29.262Z,98610.52
2022-10-21T12:26:14.297Z,98622.31
2022-10-21T12:31:45.495Z,98613.70
2022-10-21T12:36:50.952Z,98612.64
2022-10-21T12:42:14.486Z,98615.32
2022-10-21T12:47:34.910Z,98616.21
2022-10-21T12:52:40.332Z,98596.15
2022-10-21T12:57:43.516Z,98582.60
2022-10-21T13:03:05.640Z,98582.00
2022-10-21T13:08:22.877Z,98584.20
2022-10-21T13:13:38.919Z,98597.21
2022-10-21T13:18:58.017Z,98604.75
2022-10-21T13:24:25.494Z,98612.55
2022-10-21T13:29:37.177Z,98606.13
2022-10-21T13:34:43.223Z,98607.28
2022-10-21T13:39:51.864Z,98601.77
2022-10-21T13:45:29.559Z,98601.27
2022-10-21T13:50:38.564Z,98608.38
2022-10-21T13:55:40.405Z,98613.91
2022-10-21T14:00:42.345Z,98617.40
2022-10-21T14:05:55.265Z,98615.94
2022-10-21T14:11:12.526Z,98620.04
2022-10-21T14:16:22.411Z,98625.80
2022-10-21T14:21:27.813Z,98621.21
2022-10-21T14:26:34.673Z,98618.45
2022-10-21T14:31:36.516Z,98624.83
2022-10-21T14:37:00.872Z,98629.46
2022-10-21T14:42:08.959Z,98620.66
2022-10-21T14:47:24.018Z,98630.34
2022-10-21T14:52:53.537Z,98626.11
2022-10-21T14:58:07.799Z,98626.73
2022-10-21T15:03:12.282Z,98619.51
2022-10-21T15:08:20.400Z,98624.86
2022-10-21T15:13:22.907Z,98630.46
2022-10-21T15:18:28.990Z,98638.03
2022-10-21T15:23:41.272Z,98640.70
2022-10-21T15:28:43.312Z,98648.52
2022-10-21T15:33:45.376Z,98652.50
2022-10-21T15:38:48.835Z,98654.67
2022-10-21T15:44:09.553Z,98652.67
2022-10-21T15:49:34.572Z,98646.12
2022-10-21T15:54:47.418Z,98651.19
2022-10-21T15:59:49.385Z,98643.52
2022-10-21T16:04:53.620Z,98637.44
2022-10-21T16:09:56.717Z,98642.84
2022-10-21T16:15:46.458Z,98656.27
2022-10-21T16:20:48.917Z,98660.11
2022-10-21T16:25:50.995Z,98655.09
2022-10-21T16:30:53.795Z,98657.17
2022-10-21T16:35:55.880Z,98666.98
2022-10-21T16:41:21.614Z,98675.52
2022-10-21T16:46:39.761Z,98676.98
2022-10-21T16:51:46.258Z,98680.57
2022-10-21T16:56:48.785Z,98683.92
2022-10-21T17:02:06.517Z,98683.29
2022-10-21T17:07:17.284Z,98681.18
2022-10-21T17:12:19.266Z,98688.30
2022-10-21T17:17:22.476Z,98686.83
2022-10-21T17:22:24.601Z,98685.52
2022-10-21T17:27:26.533Z,98689.31
2022-10-21T17:32:29.831Z,98678.88
2022-10-21T17:37:32.235Z,98676.13
2022-10-21T17:42:34.270Z,98664.81
2022-10-21T17:47:50.535Z,98645.35
2022-10-21T17:52:54.544Z,98640.90
2022-10-21T17:57:56.728Z,98636.23
2022-10-21T18:02:59.099Z,98627.65
2022-10-21T18:08:00.958Z,98620.16
2022-10-21T18:13:04.423Z,98614.20
2022-10-21T18:18:06.711Z,98607.52
2022-10-21T18:23:08.490Z,98595.66
2022-10-21T18:28:10.935Z,98581.45
2022-10-21T18:33:12.841Z,98573.77
2022-10-21T18:38:14.917Z,98577.87
2022-10-21T18:43:17.323Z,98585.98
2022-10-21T18:48:25.879Z,98584.52
2022-10-21T18:53:27.720Z,98586.80
2022-10-21T18:58:31.227Z,98588.09
2022-10-21T19:03:33.451Z,98589.23
2022-10-21T19:08:35.441Z,98588.47
2022-10-21T19:13:37.445Z,98587.42
2022-10-21T19:18:39.438Z,98586.35
2022-10-21T19:23:41.367Z,98574.69
2022-10-21T19:28:45.219Z,98570.42
2022-10-21T19:33:47.499Z,98573.02
2022-10-21T19:38:49.543Z,98587.36
2022-10-21T19:43:54.718Z,98590.81
2022-10-21T19:49:05.995Z,98591.05
2022-10-21T19:54:11.973Z,98605.41
2022-10-21T19:59:13.856Z,98600.35
2022-10-21T20:04:16.317Z,98592.70
2022-10-21T20:09:20.678Z,98587.61
2022-10-21T20:14:22.557Z,98593.84
2022-10-21T20:19:24.945Z,98601.75
2022-10-21T20:24:26.925Z,98599.95
2022-10-21T20:29:29.309Z,98600.63
2022-10-21T20:34:34.198Z,98610.80
2022-10-21T20:39:41.257Z,98622.02
2022-10-21T20:44:43.242Z,98616.24
2022-10-21T20:49:45.215Z,98612.88
2022-10-21T20:54:47.608Z,98602.80
2022-10-21T20:59:49.424Z,98596.45
2022-10-21T21:04:51.362Z,98588.42
2022-10-21T21:10:02.059Z,98571.30
2022-10-21T21:15:09.403Z,98570.84
2022-10-21T21:20:11.387Z,98563.80
2022-10-21T21:25:13.353Z,98570.42
2022-10-21T21:30:15.568Z,98565.04
2022-10-21T21:35:17.571Z,98563.96
2022-10-21T21:40:19.555Z,98553.05
2022-10-21T21:45:28.442Z,98562.51
2022-10-21T21:50:46.422Z,98568.35
2022-10-21T21:55:48.463Z,98579.83
2022-10-21T22:00:50.395Z,98577.02
2022-10-21T22:05:52.282Z,98571.23
2022-10-21T22:10:54.153Z,98568.49
2022-10-21T22:15:55.850Z,98560.52
2022-10-21T22:21:03.248Z,98541.09
2022-10-21T22:26:07.035Z,98537.33
2022-10-21T22:31:12.396Z,98520.19
2022-10-21T22:36:16.809Z,98509.89
2022-10-21T22:41:18.845Z,98514.63
2022-10-21T22:46:33.388Z,98527.80
2022-10-21T22:51:36.281Z,98533.90
2022-10-21T22:56:38.501Z,98533.27
2022-10-21T23:01:40.322Z,98532.27
2022-10-21T23:06:42.151Z,98531.91
2022-10-21T23:11:47.366Z,98520.14
2022-10-21T23:16:53.271Z,98519.76
2022-10-21T23:21:55.160Z,98519.81
2022-10-21T23:26:59.152Z,98514.85
2022-10-21T23:32:06.791Z,98523.63
2022-10-21T23:37:08.842Z,98518.50
2022-10-21T23:42:10.721Z,98519.78
2022-10-21T23:47:12.742Z,98524.09
2022-10-21T23:52:14.640Z,98525.85
2022-10-21T23:57:16.464Z,98518.05
